sensor_id;sensor_type;location;lat;lon;timestamp;pressure;altitude;pressure_sealevel;temperature;humidity
30338;BME280;17143;51.888;5.408;2022-10-31T00:09:23;101887.09;;;14.67;100.00
30338;BME280;17143;51.888;5.408;2022-10-31T00:24:24;101886.78;;;14.61;100.00
30338;BME280;17143;51.888;5.408;2022-10-31T00:39:26;101912.31;;;14.49;100.00
30338;BME280;17143;51.888;5.408;2022-10-31T00:54:28;101909.22;;;14.40;100.00
30338;BME280;17143;51.888;5.408;2022-10-31T01:09:30;101902.44;;;14.29;100.00
30338;BME280;17143;51.888;5.408;2022-10-31T01:24:34;101881.59;;;14.16;100.00
30338;BME280;17143;51.888;5.408;2022-10-31T01:39:38;101872.16;;;13.88;100.00
30338;BME280;17143;51.888;5.408;2022-10-31T01:54:43;101872.28;;;13.75;100.00
30338;BME280;17143;51.888;5.408;2022-10-31T02:09:47;101863.19;;;13.39;100.00
30338;BME280;17143;51.888;5.408;2022-10-31T02:25:13;101872.28;;;13.17;100.00
30338;BME280;17143;51.888;5.408;2022-10-31T02:40:25;101871.75;;;12.95;100.00
30338;BME280;17143;51.888;5.408;2022-10-31T02:56:02;101864.81;;;12.80;100.00
30338;BME280;17143;51.888;5.408;2022-10-31T03:11:07;101871.72;;;12.65;100.00
30338;BME280;17143;51.888;5.408;2022-10-31T03:26:11;101872.06;;;12.44;100.00
30338;BME280;17143;51.888;5.408;2022-10-31T03:41:18;101875.00;;;12.35;100.00
30338;BME280;17143;51.888;5.408;2022-10-31T03:56:28;101876.22;;;12.27;100.00
30338;BME280;17143;51.888;5.408;2022-10-31T04:11:34;101861.56;;;12.16;100.00
30338;BME280;17143;51.888;5.408;2022-10-31T04:26:57;101868.00;;;12.08;100.00
30338;BME280;17143;51.888;5.408;2022-10-31T04:42:00;101865.41;;;11.95;100.00
30338;BME280;17143;51.888;5.408;2022-10-31T04:57:03;101867.63;;;11.89;100.00
30338;BME280;17143;51.888;5.408;2022-10-31T05:12:06;101852.88;;;11.89;100.00
30338;BME280;17143;51.888;5.408;2022-10-31T05:27:41;101853.28;;;11.82;100.00
30338;BME280;17143;51.888;5.408;2022-10-31T05:42:43;101848.38;;;11.74;100.00
30338;BME280;17143;51.888;5.408;2022-10-31T05:57:48;101849.53;;;11.66;100.00
30338;BME280;17143;51.888;5.408;2022-10-31T06:12:51;101837.69;;;11.57;100.00
30338;BME280;17143;51.888;5.408;2022-10-31T06:27:58;101843.72;;;11.56;100.00
30338;BME280;17143;51.888;5.408;2022-10-31T06:43:06;101849.72;;;11.55;100.00
30338;BME280;17143;51.888;5.408;2022-10-31T06:58:10;101843.03;;;11.59;100.00
30338;BME280;17143;51.888;5.408;2022-10-31T07:13:14;101839.25;;;11.80;100.00
30338;BME280;17143;51.888;5.408;2022-10-31T07:44:34;101848.22;;;13.08;100.00
30338;BME280;17143;51.888;5.408;2022-10-31T07:59:55;101860.84;;;15.15;100.00
30338;BME280;17143;51.888;5.408;2022-10-31T08:14:58;101849.75;;;16.25;100.00
30338;BME280;17143;51.888;5.408;2022-10-31T08:30:00;101851.16;;;17.94;97.51
30338;BME280;17143;51.888;5.408;2022-10-31T08:45:03;101842.88;;;16.66;100.00
30338;BME280;17143;51.888;5.408;2022-10-31T09:00:09;101833.25;;;17.04;100.00
30338;BME280;17143;51.888;5.408;2022-10-31T09:15:30;101814.66;;;16.62;100.00
30338;BME280;17143;51.888;5.408;2022-10-31T09:30:49;101820.97;;;16.48;100.00
30338;BME280;17143;51.888;5.408;2022-10-31T09:46:02;101796.31;;;16.26;100.00
30338;BME280;17143;51.888;5.408;2022-10-31T10:01:28;101765.19;;;16.35;100.00
30338;BME280;17143;51.888;5.408;2022-10-31T10:16:42;101771.97;;;16.50;100.00
30338;BME280;17143;51.888;5.408;2022-10-31T10:31:49;101736.75;;;16.27;100.00
30338;BME280;17143;51.888;5.408;2022-10-31T10:46:58;101712.03;;;16.23;100.00
30338;BME280;17143;51.888;5.408;2022-10-31T11:02:01;101690.47;;;16.30;100.00
30338;BME280;17143;51.888;5.408;2022-10-31T11:17:15;101688.38;;;16.62;100.00
30338;BME280;17143;51.888;5.408;2022-10-31T11:32:21;101651.53;;;16.62;100.00
30338;BME280;17143;51.888;5.408;2022-10-31T11:47:27;101604.31;;;16.87;100.00
30338;BME280;17143;51.888;5.408;2022-10-31T12:02:30;101555.91;;;17.04;100.00
30338;BME280;17143;51.888;5.408;2022-10-31T12:17:36;101522.13;;;17.60;100.00
30338;BME280;17143;51.888;5.408;2022-10-31T12:32:53;101468.41;;;17.82;100.00
30338;BME280;17143;51.888;5.408;2022-10-31T12:48:06;101451.53;;;18.02;100.00
30338;BME280;17143;51.888;5.408;2022-10-31T13:03:21;101423.50;;;18.06;100.00
30338;BME280;17143;51.888;5.408;2022-10-31T13:18:27;101386.69;;;18.09;100.00
30338;BME280;17143;51.888;5.408;2022-10-31T14:16:59;101302.31;;;18.09;100.00
30338;BME280;17143;51.888;5.408;2022-10-31T14:32:05;101257.88;;;17.93;99.24
30338;BME280;17143;51.888;5.408;2022-10-31T14:47:16;101250.41;;;17.80;98.83
30338;BME280;17143;51.888;5.408;2022-10-31T15:02:24;101230.72;;;17.69;99.37
30338;BME280;17143;51.888;5.408;2022-10-31T15:17:27;101204.13;;;17.59;99.81
30338;BME280;17143;51.888;5.408;2022-10-31T15:32:30;101168.69;;;17.51;100.00
30338;BME280;17143;51.888;5.408;2022-10-31T15:47:33;101142.16;;;17.45;100.00
30338;BME280;17143;51.888;5.408;2022-10-31T16:02:35;101139.88;;;17.29;100.00
30338;BME280;17143;51.888;5.408;2022-10-31T16:17:41;101137.00;;;16.95;100.00
30338;BME280;17143;51.888;5.408;2022-10-31T16:32:55;101114.09;;;16.66;100.00
30338;BME280;17143;51.888;5.408;2022-10-31T16:48:04;101091.44;;;16.45;100.00
30338;BME280;17143;51.888;5.408;2022-10-31T17:03:07;101077.13;;;16.37;100.00
30338;BME280;17143;51.888;5.408;2022-10-31T17:18:11;101061.63;;;16.20;100.00
30338;BME280;17143;51.888;5.408;2022-10-31T17:33:15;101039.19;;;16.04;100.00
30338;BME280;17143;51.888;5.408;2022-10-31T17:48:17;101019.41;;;15.90;100.00
30338;BME280;17143;51.888;5.408;2022-10-31T18:03:19;100982.28;;;15.81;100.00
30338;BME280;17143;51.888;5.408;2022-10-31T18:18:21;100981.97;;;15.72;100.00
30338;BME280;17143;51.888;5.408;2022-10-31T18:33:23;100978.84;;;15.58;100.00
30338;BME280;17143;51.888;5.408;2022-10-31T18:48:25;100954.94;;;15.51;100.00
30338;BME280;17143;51.888;5.408;2022-10-31T19:03:27;100960.84;;;15.45;100.00
30338;BME280;17143;51.888;5.408;2022-10-31T19:18:30;100954.34;;;15.36;100.00
30338;BME280;17143;51.888;5.408;2022-10-31T19:33:32;100932.22;;;15.29;100.00
30338;BME280;17143;51.888;5.408;2022-10-31T19:48:36;100930.13;;;15.19;100.00
30338;BME280;17143;51.888;5.408;2022-10-31T20:03:39;100927.09;;;15.08;100.00
30338;BME280;17143;51.888;5.408;2022-10-31T20:18:42;100893.81;;;15.07;100.00
30338;BME280;17143;51.888;5.408;2022-10-31T20:33:44;100879.00;;;15.09;100.00
30338;BME280;17143;51.888;5.408;2022-10-31T20:48:46;100867.81;;;15.13;100.00
30338;BME280;17143;51.888;5.408;2022-10-31T21:03:49;100852.06;;;15.13;100.00
30338;BME280;17143;51.888;5.408;2022-10-31T21:18:52;100837.25;;;15.15;100.00
30338;BME280;17143;51.888;5.408;2022-10-31T21:33:54;100822.34;;;15.14;100.00
30338;BME280;17143;51.888;5.408;2022-10-31T21:48:57;100804.38;;;15.01;100.00
30338;BME280;17143;51.888;5.408;2022-10-31T22:03:59;100781.50;;;14.97;100.00
30338;BME280;17143;51.888;5.408;2022-10-31T22:19:02;100784.38;;;15.05;100.00
30338;BME280;17143;51.888;5.408;2022-10-31T22:34:05;100785.59;;;15.14;100.00
30338;BME280;17143;51.888;5.408;2022-10-31T22:49:11;100753.19;;;15.39;100.00
30338;BME280;17143;51.888;5.408;2022-10-31T23:04:13;100736.75;;;15.45;100.00
30338;BME280;17143;51.888;5.408;2022-10-31T23:19:18;100728.78;;;15.42;100.00
30338;BME280;17143;51.888;5.408;2022-10-31T23:34:21;100713.81;;;15.39;100.00
30338;BME280;17143;51.888;5.408;2022-10-31T23:49:23;100681.44;;;15.39;100.00
